This is the latest recevied weather packets stored in our database for station/object KB3FKJ. If no packets are shown the sender has not sent any weather packets the latest 10 day(s).
| Time | Temp. | Humidity | Pressure | Rain* | Wind** | Luminosity | Snow |
|---|---|---|---|---|---|---|---|
| 1778124049 | 9.44° C | 66% | 1011.6 hPa | 0 mm | - | 0 W/m² | - |
| 1778123746 | 9.44° C | 66% | 1011.7 hPa | 0 mm | - | 0 W/m² | - |
| 1778123438 | 9.44° C | 68% | 1011.8 hPa | 0 mm | - | 0 W/m² | - |
| 1778123135 | 9.44° C | 71% | 1011.5 hPa | 0 mm | - | 0 W/m² | - |
| 1778122833 | 9.44° C | 72% | 1011.6 hPa | 0 mm | - | 0 W/m² | - |
| 1778122529 | 9.44° C | 75% | 1011.5 hPa | 0 mm | - | 0 W/m² | - |
| 1778122227 | 10° C | 75% | 1011.5 hPa | 0 mm | - | 0 W/m² | - |
| 1778121925 | 10° C | 74% | 1011.5 hPa | 0 mm | - | 0 W/m² | - |
| 1778121621 | 10° C | 73% | 1011.3 hPa | 0 mm | - | 0 W/m² | - |
| 1778121317 | 10° C | 74% | 1011.3 hPa | 0 mm | - | 0 W/m² | - |
| 1778121015 | 9.44° C | 77% | 1011.1 hPa | 0 mm | - | 0 W/m² | - |
| 1778120711 | 10° C | 79% | 1011.1 hPa | 0 mm | - | 0 W/m² | - |
| 1778120406 | 10° C | 78% | 1011 hPa | 0 mm | - | 0 W/m² | - |
| 1778120102 | 10° C | 80% | 1010.9 hPa | 0 mm | - | 0 W/m² | - |
| 1778119799 | 10° C | 79% | 1011.1 hPa | 0 mm | - | 0 W/m² | - |
| 1778119496 | 10° C | 80% | 1011 hPa | 0 mm | - | 0 W/m² | - |
| 1778119193 | 10° C | 80% | 1011.1 hPa | 0 mm | - | 0 W/m² | - |
| 1778118891 | 10° C | 82% | 1011 hPa | 0 mm | - | 0 W/m² | - |
| 1778118588 | 10° C | 82% | 1011.2 hPa | 0 mm | - | 0 W/m² | - |
| 1778118285 | 10° C | 81% | 1011.5 hPa | 0 mm | - | 0 W/m² | - |
| 1778117980 | 10° C | 82% | 1011.3 hPa | 0 mm | - | 0 W/m² | - |
| 1778117678 | 10° C | 82% | 1011.4 hPa | 0 mm | - | 0 W/m² | - |
| 1778117375 | 10.56° C | 81% | 1011.4 hPa | 0 mm | - | 0 W/m² | - |
| 1778117072 | 10.56° C | 81% | 1011.4 hPa | 0 mm | - | 0 W/m² | - |
| 1778116768 | 10.56° C | 79% | 1011.5 hPa | 0 mm | - | 0 W/m² | - |
* Rain latest hour (hover to see other rain measurements)
** Current wind speed in m/s (hover to see current wind gust speed)